createdAt,value
2023-07-29T00:00:04.039Z,933.01
2023-07-29T00:01:03.973Z,933.00
2023-07-29T00:02:04.057Z,933.00
2023-07-29T00:03:04.106Z,933.01
2023-07-29T00:04:04.159Z,933.01
2023-07-29T00:05:04.025Z,933.00
2023-07-29T00:06:03.946Z,933.00
2023-07-29T00:07:03.989Z,933.00
2023-07-29T00:08:03.986Z,933.00
2023-07-29T00:09:03.929Z,933.00
2023-07-29T00:10:03.974Z,933.00
2023-07-29T00:11:03.879Z,933.01
2023-07-29T00:12:03.949Z,933.02
2023-07-29T00:13:03.850Z,933.00
2023-07-29T00:14:04.552Z,933.02
2023-07-29T00:15:03.976Z,933.02
2023-07-29T00:16:03.983Z,933.02
2023-07-29T00:17:03.956Z,933.04
2023-07-29T00:18:04.241Z,933.03
2023-07-29T00:19:03.875Z,933.02
2023-07-29T00:20:03.880Z,933.04
2023-07-29T00:21:04.662Z,933.04
2023-07-29T00:22:03.881Z,933.05
2023-07-29T00:23:03.891Z,933.07
2023-07-29T00:24:03.823Z,933.10
2023-07-29T00:25:04.032Z,933.13
2023-07-29T00:26:03.782Z,933.15
2023-07-29T00:27:03.778Z,933.18
2023-07-29T00:28:03.801Z,933.19
2023-07-29T00:29:03.727Z,933.21
2023-07-29T00:30:03.703Z,933.22
2023-07-29T00:31:03.927Z,933.22
2023-07-29T00:32:03.755Z,933.21
2023-07-29T00:33:04.570Z,933.20
2023-07-29T00:34:05.013Z,933.19
2023-07-29T00:35:06.862Z,933.18
2023-07-29T00:36:03.696Z,933.19
2023-07-29T00:37:03.709Z,933.19
2023-07-29T00:38:03.647Z,933.17
2023-07-29T00:39:04.163Z,933.17
2023-07-29T00:40:03.622Z,933.14
2023-07-29T00:41:03.648Z,933.13
2023-07-29T00:42:03.581Z,933.12
2023-07-29T00:43:03.645Z,933.06
2023-07-29T00:44:03.593Z,933.05
2023-07-29T00:45:03.596Z,933.07
2023-07-29T00:46:03.615Z,933.07
2023-07-29T00:47:03.611Z,933.10
2023-07-29T00:48:03.859Z,933.13
2023-07-29T00:49:03.476Z,933.15
2023-07-29T00:50:03.532Z,933.20
2023-07-29T00:51:03.490Z,933.18
2023-07-29T00:52:03.575Z,933.26
2023-07-29T00:53:03.488Z,933.30
2023-07-29T00:54:03.712Z,933.28
2023-07-29T00:55:03.447Z,933.33
2023-07-29T00:56:03.479Z,933.34
2023-07-29T00:57:03.485Z,933.36
2023-07-29T00:58:03.428Z,933.39
2023-07-29T00:59:04.519Z,933.41
2023-07-29T01:00:04.549Z,933.43
2023-07-29T01:01:03.434Z,933.47
2023-07-29T01:02:03.437Z,933.50
2023-07-29T01:03:06.048Z,933.53
2023-07-29T01:04:04.203Z,933.50
2023-07-29T01:05:03.352Z,933.59
2023-07-29T01:06:03.319Z,933.60
2023-07-29T01:07:03.336Z,933.59
2023-07-29T01:08:03.341Z,933.59
2023-07-29T01:09:04.199Z,933.66
2023-07-29T01:10:03.256Z,933.64
2023-07-29T01:11:03.358Z,933.66
2023-07-29T01:12:03.874Z,933.68
2023-07-29T01:13:03.274Z,933.71
2023-07-29T01:14:03.273Z,933.74
2023-07-29T01:15:03.333Z,933.77
2023-07-29T01:16:03.378Z,933.80
2023-07-29T01:17:03.208Z,933.84
2023-07-29T01:18:03.241Z,933.77
2023-07-29T01:19:03.216Z,933.81
2023-07-29T01:20:03.218Z,933.79
2023-07-29T01:21:03.155Z,933.81
2023-07-29T01:22:03.237Z,933.76
2023-07-29T01:23:03.139Z,933.78
2023-07-29T01:24:05.151Z,933.81
2023-07-29T01:25:03.278Z,933.84
2023-07-29T01:26:03.156Z,933.83
2023-07-29T01:27:03.611Z,933.85
2023-07-29T01:28:03.620Z,933.84
2023-07-29T01:29:03.078Z,933.82
2023-07-29T01:30:03.086Z,933.80
2023-07-29T01:31:03.098Z,933.79
2023-07-29T01:32:04.048Z,933.80
2023-07-29T01:33:03.120Z,933.80
2023-07-29T01:34:03.004Z,933.80
2023-07-29T01:35:03.156Z,933.79
2023-07-29T01:36:03.012Z,933.82
2023-07-29T01:37:03.658Z,933.82
2023-07-29T01:38:03.550Z,933.83
2023-07-29T01:39:03.040Z,933.87
2023-07-29T01:40:03.148Z,933.87
2023-07-29T01:41:03.059Z,933.87
2023-07-29T01:42:02.956Z,933.88
2023-07-29T01:43:03.070Z,933.86
2023-07-29T01:44:02.975Z,933.83
2023-07-29T01:45:02.969Z,933.81
2023-07-29T01:46:03.249Z,933.81
2023-07-29T01:47:02.882Z,933.81
2023-07-29T01:48:02.950Z,933.80
2023-07-29T01:49:02.901Z,933.81
2023-07-29T01:50:03.009Z,933.83
2023-07-29T01:51:03.639Z,933.82
2023-07-29T01:52:02.914Z,933.83
2023-07-29T01:53:02.845Z,933.85
2023-07-29T01:54:02.828Z,933.85
2023-07-29T01:55:02.833Z,933.87
2023-07-29T01:56:02.944Z,933.85
2023-07-29T01:57:02.856Z,933.86
2023-07-29T01:58:03.573Z,933.86
2023-07-29T01:59:02.756Z,933.88
2023-07-29T02:00:02.665Z,933.92
2023-07-29T02:01:02.814Z,933.91
2023-07-29T02:02:02.819Z,933.92
2023-07-29T02:03:03.585Z,933.94
2023-07-29T02:04:03.575Z,933.93
2023-07-29T02:05:03.209Z,933.91
2023-07-29T02:06:02.924Z,933.88
2023-07-29T02:07:02.812Z,933.85
2023-07-29T02:08:02.837Z,933.83
2023-07-29T02:09:02.833Z,933.79
2023-07-29T02:10:02.729Z,933.76
2023-07-29T02:11:02.632Z,933.77
2023-07-29T02:12:03.093Z,933.75
2023-07-29T02:13:05.509Z,933.74
2023-07-29T02:14:02.654Z,933.70
2023-07-29T02:15:02.673Z,933.64
2023-07-29T02:16:02.670Z,933.64
2023-07-29T02:17:02.590Z,933.64
2023-07-29T02:18:02.667Z,933.62
2023-07-29T02:19:02.602Z,933.61
2023-07-29T02:20:03.620Z,933.61
2023-07-29T02:21:02.546Z,933.56
2023-07-29T02:22:03.222Z,933.55
2023-07-29T02:23:02.518Z,933.55
2023-07-29T02:24:02.516Z,933.53
2023-07-29T02:25:02.538Z,933.56
2023-07-29T02:26:03.041Z,933.57
2023-07-29T02:27:03.256Z,933.59
2023-07-29T02:28:02.468Z,933.55
2023-07-29T02:29:02.450Z,933.53
2023-07-29T02:30:03.384Z,933.54
2023-07-29T02:31:02.564Z,933.58
2023-07-29T02:32:03.127Z,933.60
2023-07-29T02:33:02.487Z,933.60
2023-07-29T02:34:02.502Z,933.60
2023-07-29T02:35:02.409Z,933.61
2023-07-29T02:36:02.400Z,933.62
2023-07-29T02:37:02.398Z,933.63
2023-07-29T02:38:03.020Z,933.62
2023-07-29T02:39:03.226Z,933.63
2023-07-29T02:40:02.843Z,933.65
2023-07-29T02:41:02.325Z,933.68
2023-07-29T02:42:02.326Z,933.68
2023-07-29T02:43:03.043Z,933.70
2023-07-29T02:44:02.340Z,933.70
2023-07-29T02:45:02.442Z,933.68
2023-07-29T02:46:02.580Z,933.66
2023-07-29T02:47:02.305Z,933.66
2023-07-29T02:48:02.340Z,933.71
2023-07-29T02:49:05.035Z,933.68
2023-07-29T02:50:02.215Z,933.69
2023-07-29T02:51:02.177Z,933.67
2023-07-29T02:52:02.299Z,933.66
2023-07-29T02:53:02.290Z,933.63
2023-07-29T02:54:02.207Z,933.67
2023-07-29T02:55:02.213Z,933.67
2023-07-29T02:56:02.425Z,933.69
2023-07-29T02:57:02.118Z,933.71
2023-07-29T02:58:04.073Z,933.69
2023-07-29T02:59:02.144Z,933.72
2023-07-29T03:00:02.140Z,933.69
2023-07-29T03:01:03.085Z,933.67
2023-07-29T03:02:02.059Z,933.69
2023-07-29T03:03:02.268Z,933.67
2023-07-29T03:04:02.131Z,933.69
2023-07-29T03:05:02.789Z,933.68
2023-07-29T03:06:02.076Z,933.66
2023-07-29T03:07:02.086Z,933.65
2023-07-29T03:08:01.986Z,933.62
2023-07-29T03:09:02.003Z,933.61
2023-07-29T03:10:02.010Z,933.55
2023-07-29T03:11:02.018Z,933.55
2023-07-29T03:12:02.536Z,933.56
2023-07-29T03:13:02.037Z,933.53
2023-07-29T03:14:02.095Z,933.51
2023-07-29T03:15:01.968Z,933.49
2023-07-29T03:16:01.943Z,933.46
2023-07-29T03:17:02.002Z,933.48
2023-07-29T03:18:02.026Z,933.47
2023-07-29T03:19:01.856Z,933.44
2023-07-29T03:20:01.864Z,933.44
2023-07-29T03:21:01.871Z,933.39
2023-07-29T03:22:01.897Z,933.38
2023-07-29T03:23:02.185Z,933.36
2023-07-29T03:24:01.884Z,933.36
2023-07-29T03:25:01.914Z,933.35
2023-07-29T03:26:01.841Z,933.35
2023-07-29T03:27:01.754Z,933.35
2023-07-29T03:28:01.819Z,933.35
2023-07-29T03:29:02.007Z,933.36
2023-07-29T03:30:01.852Z,933.38
2023-07-29T03:31:01.737Z,933.39
2023-07-29T03:32:01.940Z,933.39
2023-07-29T03:33:01.761Z,933.39
2023-07-29T03:34:01.741Z,933.37
2023-07-29T03:35:01.985Z,933.35
2023-07-29T03:36:01.656Z,933.34
2023-07-29T03:37:01.663Z,933.32
2023-07-29T03:38:01.779Z,933.32
2023-07-29T03:39:01.694Z,933.33
2023-07-29T03:40:04.962Z,933.30
2023-07-29T03:41:02.812Z,933.30
2023-07-29T03:42:01.942Z,933.28
2023-07-29T03:43:01.709Z,933.26
2023-07-29T03:44:01.592Z,933.22
2023-07-29T03:45:01.609Z,933.21
2023-07-29T03:46:01.667Z,933.18
2023-07-29T03:47:02.444Z,933.20
2023-07-29T03:48:02.623Z,933.21
2023-07-29T03:49:01.473Z,933.22
2023-07-29T03:50:01.546Z,933.24
2023-07-29T03:51:01.470Z,933.26
2023-07-29T03:52:02.164Z,933.25
2023-07-29T03:53:01.573Z,933.28
2023-07-29T03:54:01.456Z,933.24
2023-07-29T03:55:01.482Z,933.26
2023-07-29T03:56:01.481Z,933.28
2023-07-29T03:57:01.486Z,933.29
2023-07-29T03:58:01.501Z,933.31
2023-07-29T03:59:01.508Z,933.33
2023-07-29T04:00:01.411Z,933.36
2023-07-29T04:01:01.404Z,933.39
2023-07-29T04:02:01.414Z,933.40
2023-07-29T04:03:01.476Z,933.37
2023-07-29T04:04:02.241Z,933.40
2023-07-29T04:05:01.466Z,933.33
2023-07-29T04:06:01.345Z,933.29
2023-07-29T04:07:01.357Z,933.29
2023-07-29T04:08:01.396Z,933.20
2023-07-29T04:09:02.225Z,933.24
2023-07-29T04:10:01.360Z,933.23
2023-07-29T04:11:02.033Z,933.22
2023-07-29T04:12:01.285Z,933.21
2023-07-29T04:13:01.197Z,933.21
2023-07-29T04:14:01.526Z,933.23
2023-07-29T04:15:01.203Z,933.17
2023-07-29T04:16:01.242Z,933.18
2023-07-29T04:17:01.252Z,933.23
2023-07-29T04:18:01.280Z,933.21
2023-07-29T04:19:01.166Z,933.22
2023-07-29T04:20:01.172Z,933.22
2023-07-29T04:21:01.247Z,933.24
2023-07-29T04:22:01.249Z,933.24
2023-07-29T04:23:01.197Z,933.23
2023-07-29T04:24:01.159Z,933.23
2023-07-29T04:25:01.176Z,933.22
2023-07-29T04:26:01.082Z,933.23
2023-07-29T04:27:01.172Z,933.21
2023-07-29T04:28:01.173Z,933.24
2023-07-29T04:29:01.104Z,933.23
2023-07-29T04:30:01.028Z,933.25
2023-07-29T04:31:01.036Z,933.23
2023-07-29T04:32:01.064Z,933.24
2023-07-29T04:33:01.074Z,933.23
2023-07-29T04:34:01.031Z,933.22
2023-07-29T04:35:01.030Z,933.19
2023-07-29T04:36:00.947Z,933.17
2023-07-29T04:37:00.945Z,933.18
2023-07-29T04:38:00.950Z,933.18
2023-07-29T04:39:00.940Z,933.19
2023-07-29T04:40:00.951Z,933.19
2023-07-29T04:41:01.214Z,933.22
2023-07-29T04:42:00.887Z,933.18
2023-07-29T04:43:00.893Z,933.16
2023-07-29T04:44:00.820Z,933.15
2023-07-29T04:45:00.795Z,933.13
2023-07-29T04:46:01.057Z,933.12
2023-07-29T04:47:00.886Z,933.09
2023-07-29T04:48:00.858Z,933.06
2023-07-29T04:49:00.833Z,933.06
2023-07-29T04:50:00.730Z,933.03
2023-07-29T04:51:00.828Z,933.04
2023-07-29T04:52:01.063Z,933.03
2023-07-29T04:53:01.498Z,933.02
2023-07-29T04:54:00.745Z,933.02
2023-07-29T04:55:01.710Z,933.02
2023-07-29T04:56:00.643Z,932.99
2023-07-29T04:57:00.672Z,933.00
2023-07-29T04:58:03.956Z,932.99
2023-07-29T04:59:00.695Z,932.98
2023-07-29T05:00:00.668Z,933.01
2023-07-29T05:01:00.640Z,933.02
2023-07-29T05:02:00.607Z,933.02
2023-07-29T05:03:01.212Z,933.02
2023-07-29T05:04:01.069Z,933.03
2023-07-29T05:05:00.747Z,933.03
2023-07-29T05:06:00.695Z,933.03
2023-07-29T05:07:00.771Z,933.04
2023-07-29T05:08:00.541Z,933.04
2023-07-29T05:09:00.540Z,933.04
2023-07-29T05:10:00.557Z,933.06
2023-07-29T05:11:00.540Z,933.05
2023-07-29T05:12:01.471Z,933.03
2023-07-29T05:13:00.553Z,933.03
2023-07-29T05:14:00.471Z,933.00
2023-07-29T05:15:00.572Z,932.99
2023-07-29T05:16:00.536Z,932.95
2023-07-29T05:17:00.476Z,933.00
2023-07-29T05:18:00.466Z,932.94
2023-07-29T05:19:01.043Z,932.96
2023-07-29T05:20:00.511Z,932.96
2023-07-29T05:21:00.568Z,932.95
2023-07-29T05:22:00.521Z,932.95
2023-07-29T05:23:00.416Z,932.94
2023-07-29T05:24:00.432Z,932.94
2023-07-29T05:25:00.361Z,932.93
2023-07-29T05:26:00.390Z,932.92
2023-07-29T05:27:00.448Z,932.89
2023-07-29T05:28:00.415Z,932.88
2023-07-29T05:29:00.355Z,932.87
2023-07-29T05:30:00.281Z,932.87
2023-07-29T05:31:00.289Z,932.89
2023-07-29T05:32:00.291Z,932.90
2023-07-29T05:33:00.442Z,932.89
2023-07-29T05:34:00.388Z,932.90
2023-07-29T05:35:00.214Z,932.90
2023-07-29T05:36:00.245Z,932.89
2023-07-29T05:37:00.302Z,932.90
2023-07-29T05:38:00.221Z,932.89
2023-07-29T05:39:00.274Z,932.88
2023-07-29T05:40:00.297Z,932.86
2023-07-29T05:41:00.152Z,932.87
2023-07-29T05:42:00.966Z,932.87
2023-07-29T05:43:00.157Z,932.86
2023-07-29T05:44:00.152Z,932.84
2023-07-29T05:45:00.281Z,932.83
2023-07-29T05:46:01.007Z,932.82
2023-07-29T05:47:00.132Z,932.81
2023-07-29T05:48:00.135Z,932.78
2023-07-29T05:49:00.696Z,932.78
2023-07-29T05:50:02.017Z,932.81
2023-07-29T05:51:00.096Z,932.75
2023-07-29T05:52:00.143Z,932.76
2023-07-29T05:53:00.096Z,932.74
2023-07-29T05:54:00.047Z,932.72
2023-07-29T05:55:00.041Z,932.73
2023-07-29T05:56:00.053Z,932.68
2023-07-29T05:57:00.080Z,932.68
2023-07-29T05:58:00.037Z,932.68
2023-07-29T05:59:00.713Z,932.68
2023-07-29T05:59:59.957Z,932.68
2023-07-29T06:01:00.074Z,932.70
2023-07-29T06:02:00.010Z,932.67
2023-07-29T06:03:00.062Z,932.66
2023-07-29T06:04:00.180Z,932.62
2023-07-29T06:04:59.946Z,932.63
2023-07-29T06:06:01.574Z,932.61
2023-07-29T06:06:59.921Z,932.61
2023-07-29T06:07:59.910Z,932.61
2023-07-29T06:08:59.908Z,932.59
2023-07-29T06:09:59.864Z,932.58
2023-07-29T06:10:59.871Z,932.60
2023-07-29T06:11:59.870Z,932.58
2023-07-29T06:12:59.856Z,932.58
2023-07-29T06:13:59.854Z,932.61
2023-07-29T06:15:00.717Z,932.61
2023-07-29T06:15:59.817Z,932.61
2023-07-29T06:16:59.812Z,932.62
2023-07-29T06:17:59.872Z,932.61
2023-07-29T06:18:59.823Z,932.60
2023-07-29T06:19:59.788Z,932.60
2023-07-29T06:20:59.812Z,932.60
2023-07-29T06:21:59.738Z,932.62
2023-07-29T06:22:59.744Z,932.61
2023-07-29T06:23:59.712Z,932.60
2023-07-29T06:24:59.738Z,932.63
2023-07-29T06:25:59.744Z,932.60
2023-07-29T06:26:59.743Z,932.62
2023-07-29T06:27:59.773Z,932.59
2023-07-29T06:28:59.744Z,932.58
2023-07-29T06:29:59.648Z,932.60
2023-07-29T06:31:00.137Z,932.60
2023-07-29T06:31:59.779Z,932.61
2023-07-29T06:32:59.827Z,932.61
2023-07-29T06:33:59.669Z,932.63
2023-07-29T06:34:59.684Z,932.65
2023-07-29T06:35:59.681Z,932.69
2023-07-29T06:37:00.108Z,932.66
2023-07-29T06:37:59.900Z,932.71
2023-07-29T06:38:59.697Z,932.65
2023-07-29T06:39:59.600Z,932.66
2023-07-29T06:40:59.609Z,932.67
2023-07-29T06:41:59.539Z,932.67
2023-07-29T06:42:59.547Z,932.66
2023-07-29T06:43:59.635Z,932.67
2023-07-29T06:44:59.756Z,932.65
2023-07-29T06:46:00.325Z,932.67
2023-07-29T06:46:59.551Z,932.67
2023-07-29T06:47:59.593Z,932.66
2023-07-29T06:48:59.679Z,932.66
2023-07-29T06:49:59.496Z,932.64
2023-07-29T06:50:59.401Z,932.68
2023-07-29T06:51:59.397Z,932.67
2023-07-29T06:52:59.430Z,932.65
2023-07-29T06:53:59.494Z,932.67
2023-07-29T06:54:59.502Z,932.67
2023-07-29T06:55:59.506Z,932.68
2023-07-29T06:57:00.027Z,932.65
2023-07-29T06:57:59.414Z,932.65
2023-07-29T06:58:59.425Z,932.64
2023-07-29T06:59:59.646Z,932.63
2023-07-29T07:01:01.194Z,932.63
2023-07-29T07:01:59.482Z,932.64
2023-07-29T07:02:59.414Z,932.66
2023-07-29T07:03:59.415Z,932.65
2023-07-29T07:04:59.373Z,932.68
2023-07-29T07:06:00.089Z,932.65
2023-07-29T07:06:59.705Z,932.67
2023-07-29T07:07:59.290Z,932.67
2023-07-29T07:08:59.295Z,932.68
2023-07-29T07:10:01.404Z,932.67
2023-07-29T07:11:00.849Z,932.69
2023-07-29T07:12:02.186Z,932.70
2023-07-29T07:13:02.813Z,932.69
2023-07-29T07:13:59.226Z,932.70
2023-07-29T07:14:59.543Z,932.70
2023-07-29T07:16:01.246Z,932.70
2023-07-29T07:16:59.252Z,932.70
2023-07-29T07:17:59.281Z,932.70
2023-07-29T07:19:00.185Z,932.69
2023-07-29T07:19:59.268Z,932.69
2023-07-29T07:20:59.168Z,932.68
2023-07-29T07:21:59.167Z,932.70
2023-07-29T07:22:59.191Z,932.70
2023-07-29T07:23:59.192Z,932.71
2023-07-29T07:24:59.195Z,932.70
2023-07-29T07:25:59.099Z,932.72
2023-07-29T07:26:59.109Z,932.71
2023-07-29T07:27:59.343Z,932.72
2023-07-29T07:28:59.628Z,932.73
2023-07-29T07:29:59.746Z,932.73
2023-07-29T07:30:59.038Z,932.72
2023-07-29T07:31:59.082Z,932.71
2023-07-29T07:32:59.077Z,932.69
2023-07-29T07:34:01.619Z,932.68
2023-07-29T07:34:59.675Z,932.68
2023-07-29T07:35:59.077Z,932.66
2023-07-29T07:36:59.082Z,932.64
2023-07-29T07:37:58.980Z,932.65
2023-07-29T07:38:59.199Z,932.64
2023-07-29T07:40:00.156Z,932.64
2023-07-29T07:40:59.107Z,932.62
2023-07-29T07:41:59.631Z,932.62
2023-07-29T07:42:59.010Z,932.62
2023-07-29T07:43:59.017Z,932.62
2023-07-29T07:44:58.925Z,932.61
2023-07-29T07:45:59.160Z,932.61
2023-07-29T07:46:59.941Z,932.63
2023-07-29T07:47:59.011Z,932.65
2023-07-29T07:48:58.961Z,932.66
2023-07-29T07:49:58.860Z,932.68
2023-07-29T07:50:58.860Z,932.69
2023-07-29T07:51:59.705Z,932.70
2023-07-29T07:52:59.795Z,932.71
2023-07-29T07:53:58.886Z,932.74
2023-07-29T07:54:58.791Z,932.73
2023-07-29T07:55:58.901Z,932.74
2023-07-29T07:56:58.800Z,932.76
2023-07-29T07:57:59.625Z,932.75
2023-07-29T07:58:59.736Z,932.77
2023-07-29T07:59:58.826Z,932.74
2023-07-29T08:00:58.750Z,932.73
2023-07-29T08:01:59.139Z,932.75
2023-07-29T08:02:59.805Z,932.75
2023-07-29T08:03:59.700Z,932.75
2023-07-29T08:04:59.682Z,932.79
2023-07-29T08:05:58.766Z,932.78
2023-07-29T08:06:58.678Z,932.82
2023-07-29T08:08:00.737Z,932.82
2023-07-29T08:08:58.676Z,932.84
2023-07-29T08:09:58.689Z,932.85
2023-07-29T08:10:58.727Z,932.86
2023-07-29T08:11:58.716Z,932.86
2023-07-29T08:12:58.602Z,932.90
2023-07-29T08:13:58.711Z,932.87
2023-07-29T08:14:59.133Z,932.90
2023-07-29T08:15:59.300Z,932.89
2023-07-29T08:16:58.625Z,932.90
2023-07-29T08:17:58.556Z,932.92
2023-07-29T08:18:58.662Z,932.94
2023-07-29T08:19:58.661Z,932.93
2023-07-29T08:20:58.567Z,932.95
2023-07-29T08:21:59.184Z,932.97
2023-07-29T08:22:58.571Z,932.99
2023-07-29T08:23:58.483Z,932.98
2023-07-29T08:24:58.477Z,933.02
2023-07-29T08:25:58.786Z,933.02
2023-07-29T08:26:59.828Z,933.01
2023-07-29T08:27:58.840Z,933.06
2023-07-29T08:28:58.716Z,933.04
2023-07-29T08:29:58.427Z,933.05
2023-07-29T08:30:58.467Z,933.06
2023-07-29T08:31:58.635Z,933.08
2023-07-29T08:32:58.446Z,933.06
2023-07-29T08:33:58.453Z,933.13
2023-07-29T08:34:58.449Z,933.11
2023-07-29T08:35:58.355Z,933.09
2023-07-29T08:36:58.382Z,933.12
2023-07-29T08:37:58.359Z,933.11
2023-07-29T08:38:59.184Z,933.12
2023-07-29T08:39:58.369Z,933.14
2023-07-29T08:40:58.334Z,933.14
2023-07-29T08:41:58.339Z,933.14
2023-07-29T08:42:58.288Z,933.13
2023-07-29T08:43:58.406Z,933.16
2023-07-29T08:44:59.123Z,933.17
2023-07-29T08:45:58.314Z,933.17
2023-07-29T08:46:58.366Z,933.18
2023-07-29T08:47:58.480Z,933.21
2023-07-29T08:48:58.179Z,933.21
2023-07-29T08:49:58.147Z,933.25
2023-07-29T08:50:58.196Z,933.27
2023-07-29T08:51:58.247Z,933.26
2023-07-29T08:52:58.153Z,933.28
2023-07-29T08:53:58.197Z,933.27
2023-07-29T08:54:58.160Z,933.30
2023-07-29T08:55:58.137Z,933.34
2023-07-29T08:56:58.085Z,933.30
2023-07-29T08:57:58.185Z,933.33
2023-07-29T08:58:58.103Z,933.31
2023-07-29T08:59:58.113Z,933.36
2023-07-29T09:00:58.013Z,933.33
2023-07-29T09:01:58.017Z,933.34
2023-07-29T09:02:58.097Z,933.38
2023-07-29T09:03:58.325Z,933.36
2023-07-29T09:04:57.978Z,933.33
2023-07-29T09:05:58.041Z,933.34
2023-07-29T09:06:58.061Z,933.34
2023-07-29T09:07:58.053Z,933.33
2023-07-29T09:08:57.950Z,933.36
2023-07-29T09:09:58.018Z,933.36
2023-07-29T09:10:57.981Z,933.39
2023-07-29T09:11:57.936Z,933.37
2023-07-29T09:12:57.936Z,933.35
2023-07-29T09:13:57.999Z,933.34
2023-07-29T09:14:58.844Z,933.34
2023-07-29T09:15:58.006Z,933.34
2023-07-29T09:16:57.996Z,933.36
2023-07-29T09:17:59.729Z,933.34
2023-07-29T09:18:57.919Z,933.30
2023-07-29T09:19:57.887Z,933.30
2023-07-29T09:20:57.832Z,933.30
2023-07-29T09:21:59.278Z,933.27
2023-07-29T09:22:57.844Z,933.31
2023-07-29T09:23:57.858Z,933.33
2023-07-29T09:24:57.956Z,933.35
2023-07-29T09:25:57.867Z,933.35
2023-07-29T09:26:57.870Z,933.34
2023-07-29T09:27:57.908Z,933.33
2023-07-29T09:28:57.884Z,933.32
2023-07-29T09:29:57.886Z,933.36
2023-07-29T09:30:57.829Z,933.38
2023-07-29T09:31:57.899Z,933.38
2023-07-29T09:32:57.953Z,933.38
2023-07-29T09:33:57.874Z,933.41
2023-07-29T09:34:57.684Z,933.40
2023-07-29T09:35:57.734Z,933.41
2023-07-29T09:36:57.740Z,933.40
2023-07-29T09:37:57.847Z,933.40
2023-07-29T09:38:57.742Z,933.43
2023-07-29T09:39:57.665Z,933.41
2023-07-29T09:40:57.659Z,933.43
2023-07-29T09:41:57.622Z,933.45
2023-07-29T09:42:57.672Z,933.48
2023-07-29T09:43:57.732Z,933.48
2023-07-29T09:44:57.639Z,933.46
2023-07-29T09:45:57.709Z,933.43
2023-07-29T09:46:57.736Z,933.48
2023-07-29T09:47:57.722Z,933.48
2023-07-29T09:48:57.673Z,933.50
2023-07-29T09:49:58.180Z,933.53
2023-07-29T09:50:57.670Z,933.54
2023-07-29T09:51:58.404Z,933.54
2023-07-29T09:52:57.584Z,933.60
2023-07-29T09:53:57.595Z,933.60
2023-07-29T09:54:57.844Z,933.63
2023-07-29T09:55:57.855Z,933.67
2023-07-29T09:56:57.508Z,933.66
2023-07-29T09:57:57.517Z,933.66
2023-07-29T09:58:57.529Z,933.71
2023-07-29T09:59:57.453Z,933.72
2023-07-29T10:00:57.651Z,933.71
2023-07-29T10:01:57.479Z,933.70
2023-07-29T10:02:57.878Z,933.71
2023-07-29T10:03:58.360Z,933.71
2023-07-29T10:04:57.461Z,933.72
2023-07-29T10:05:57.469Z,933.70
2023-07-29T10:06:57.377Z,933.69
2023-07-29T10:07:57.498Z,933.72
2023-07-29T10:08:57.396Z,933.71
2023-07-29T10:09:57.395Z,933.70
2023-07-29T10:10:57.406Z,933.69
2023-07-29T10:11:57.412Z,933.75
2023-07-29T10:12:57.922Z,933.76
2023-07-29T10:14:07.272Z,933.77
2023-07-29T10:14:57.436Z,933.80
2023-07-29T10:15:58.539Z,933.78
2023-07-29T10:16:57.651Z,933.79
2023-07-29T10:17:57.426Z,933.79
2023-07-29T10:18:57.458Z,933.82
2023-07-29T10:19:57.378Z,933.77
2023-07-29T10:20:57.885Z,933.82
2023-07-29T10:21:57.881Z,933.80
2023-07-29T10:22:57.589Z,933.78
2023-07-29T10:23:57.188Z,933.78
2023-07-29T10:24:57.914Z,933.82
2023-07-29T10:25:57.167Z,933.81
2023-07-29T10:27:01.205Z,933.85
2023-07-29T10:27:58.288Z,933.83
2023-07-29T10:28:57.226Z,933.85
2023-07-29T10:29:57.128Z,933.85
2023-07-29T10:30:57.132Z,933.87
2023-07-29T10:31:57.164Z,933.89
2023-07-29T10:32:57.844Z,933.90
2023-07-29T10:33:57.796Z,933.95
2023-07-29T10:34:57.157Z,933.97
2023-07-29T10:35:57.068Z,933.97
2023-07-29T10:36:57.182Z,933.96
2023-07-29T10:37:57.077Z,933.96
2023-07-29T10:38:58.203Z,933.96
2023-07-29T10:39:57.701Z,933.96
2023-07-29T10:40:57.114Z,933.96
2023-07-29T10:41:57.040Z,933.96
2023-07-29T10:42:57.000Z,934.02
2023-07-29T10:43:57.013Z,934.02
2023-07-29T10:44:57.327Z,934.02
2023-07-29T10:46:10.878Z,934.03
2023-07-29T10:46:56.968Z,934.04
2023-07-29T10:47:57.103Z,934.04
2023-07-29T10:48:57.062Z,934.06
2023-07-29T10:49:56.913Z,934.07
2023-07-29T10:50:57.263Z,934.09
2023-07-29T10:51:56.960Z,934.11
2023-07-29T10:52:56.860Z,934.14
2023-07-29T10:53:56.892Z,934.14
2023-07-29T10:54:56.908Z,934.15
2023-07-29T10:55:57.697Z,934.21
2023-07-29T10:57:01.186Z,934.20
2023-07-29T10:57:56.903Z,934.24
2023-07-29T10:58:56.804Z,934.24
2023-07-29T10:59:56.860Z,934.29
2023-07-29T11:00:56.818Z,934.28
2023-07-29T11:01:56.818Z,934.28
2023-07-29T11:02:58.910Z,934.25
2023-07-29T11:03:56.932Z,934.26
2023-07-29T11:04:56.812Z,934.30
2023-07-29T11:05:57.866Z,934.28
2023-07-29T11:06:56.752Z,934.29
2023-07-29T11:07:56.769Z,934.26
2023-07-29T11:08:57.682Z,934.26
2023-07-29T11:09:57.399Z,934.29
2023-07-29T11:10:56.682Z,934.29
2023-07-29T11:11:57.471Z,934.29
2023-07-29T11:12:57.619Z,934.30
2023-07-29T11:13:57.216Z,934.31
2023-07-29T11:14:57.622Z,934.27
2023-07-29T11:15:56.658Z,934.26
2023-07-29T11:16:56.623Z,934.27
2023-07-29T11:17:57.311Z,934.26
2023-07-29T11:18:57.557Z,934.28
2023-07-29T11:19:56.641Z,934.30
2023-07-29T11:20:56.637Z,934.32
2023-07-29T11:21:57.361Z,934.31
2023-07-29T11:22:56.978Z,934.32
2023-07-29T11:23:56.562Z,934.35
2023-07-29T11:24:56.568Z,934.35
2023-07-29T11:25:56.573Z,934.36
2023-07-29T11:26:56.587Z,934.37
2023-07-29T11:27:56.637Z,934.36
2023-07-29T11:28:56.500Z,934.38
2023-07-29T11:29:56.602Z,934.39
2023-07-29T11:30:56.506Z,934.43
2023-07-29T11:31:59.785Z,934.44
2023-07-29T11:32:56.597Z,934.44
2023-07-29T11:33:56.324Z,934.49
2023-07-29T11:34:56.339Z,934.49
2023-07-29T11:35:56.407Z,934.48
2023-07-29T11:36:56.433Z,934.52
2023-07-29T11:37:57.218Z,934.54
2023-07-29T11:38:56.463Z,934.57
2023-07-29T11:39:56.359Z,934.57
2023-07-29T11:40:56.356Z,934.56
2023-07-29T11:41:56.320Z,934.58
2023-07-29T11:42:56.335Z,934.58
2023-07-29T11:43:56.337Z,934.58
2023-07-29T11:44:56.856Z,934.62
2023-07-29T11:45:56.244Z,934.61
2023-07-29T11:46:56.270Z,934.62
2023-07-29T11:47:57.236Z,934.66
2023-07-29T11:48:56.327Z,934.66
2023-07-29T11:49:56.234Z,934.67
2023-07-29T11:50:57.204Z,934.69
2023-07-29T11:51:56.179Z,934.70
2023-07-29T11:52:56.190Z,934.73
2023-07-29T11:53:56.202Z,934.75
2023-07-29T11:54:56.721Z,934.75
2023-07-29T11:55:56.209Z,934.78
2023-07-29T11:56:56.077Z,934.80
2023-07-29T11:57:56.196Z,934.81
2023-07-29T11:58:56.127Z,934.85
2023-07-29T11:59:56.204Z,934.88
2023-07-29T12:00:56.170Z,934.90
2023-07-29T12:01:56.085Z,934.93
2023-07-29T12:02:56.179Z,934.93
2023-07-29T12:03:56.310Z,934.95
2023-07-29T12:04:56.116Z,934.95
2023-07-29T12:05:56.330Z,934.97
2023-07-29T12:06:56.124Z,934.98
2023-07-29T12:07:56.028Z,934.97
2023-07-29T12:08:56.030Z,934.99
2023-07-29T12:09:56.036Z,934.98
2023-07-29T12:10:56.054Z,934.99
2023-07-29T12:11:56.266Z,935.03
2023-07-29T12:12:55.981Z,935.02
2023-07-29T12:13:56.075Z,935.07
2023-07-29T12:14:55.929Z,935.08
2023-07-29T12:15:55.998Z,935.08
2023-07-29T12:16:56.187Z,935.11
2023-07-29T12:17:56.343Z,935.14
2023-07-29T12:18:55.921Z,935.13
2023-07-29T12:19:55.971Z,935.14
2023-07-29T12:20:55.932Z,935.17
2023-07-29T12:21:55.917Z,935.20
2023-07-29T12:22:55.874Z,935.15
2023-07-29T12:23:59.581Z,935.16
2023-07-29T12:24:55.858Z,935.19
2023-07-29T12:25:56.156Z,935.19
2023-07-29T12:26:55.853Z,935.20
2023-07-29T12:27:55.825Z,935.20